This is the latest recevied weather packets stored in our database for station/object ALTO-WX. If no packets are shown the sender has not sent any weather packets the latest 10 day(s).
| Time | Temp. | Humidity | Pressure | Rain* | Wind** | Luminosity | Snow |
|---|---|---|---|---|---|---|---|
| 1777797934 | 2.22° C | 59% | 982.4 hPa | 0 mm | - | - | - |
| 1777797053 | 2.78° C | 62% | 982.5 hPa | 0 mm | - | - | - |
| 1777796133 | 2.22° C | 62% | 982.4 hPa | 0 mm | - | - | - |
| 1777795258 | 2.22° C | 64% | 981.9 hPa | 0 mm | - | - | - |
| 1777794334 | 2.22° C | 60% | 982.6 hPa | 0 mm | - | - | - |
| 1777793452 | 2.22° C | 60% | 982.6 hPa | 0 mm | - | - | - |
| 1777792533 | 2.22° C | 60% | 982.6 hPa | 0 mm | - | - | - |
| 1777791661 | 2.22° C | 60% | 982.6 hPa | 0 mm | - | - | - |
| 1777790735 | 2.22° C | 60% | 983.6 hPa | 0 mm | - | - | - |
| 1777789849 | 2.22° C | 63% | 983.6 hPa | 0 mm | - | - | - |
| 1777788934 | 2.22° C | 63% | 983.6 hPa | 0 mm | - | - | - |
| 1777788071 | 2.22° C | 63% | 983.6 hPa | 0 mm | - | - | - |
| 1777787134 | 2.22° C | 62% | 984.1 hPa | 0 mm | - | - | - |
| 1777785333 | 2.22° C | 64% | 984.3 hPa | 0 mm | - | - | - |
| 1777784461 | 2.22° C | 64% | 984.3 hPa | 0 mm | - | - | - |
| 1777783533 | 2.22° C | 65% | 984.6 hPa | 0 mm | - | - | - |
| 1777782653 | 2.22° C | 66% | 984 hPa | 0 mm | - | - | - |
| 1777781734 | 2.78° C | 66% | 984 hPa | 0 mm | - | - | - |
| 1777780864 | 2.78° C | 66% | 984 hPa | 0 mm | - | - | - |
| 1777779933 | 2.78° C | 63% | 985 hPa | 0 mm | - | - | - |
| 1777779054 | 2.78° C | 63% | 985.2 hPa | 0 mm | - | - | - |
| 1777778133 | 3.33° C | 63% | 985.3 hPa | 0 mm | - | - | - |
| 1777777262 | 3.33° C | 63% | 985.3 hPa | 0 mm | - | - | - |
| 1777776333 | 3.33° C | 58% | 986.1 hPa | 0 mm | - | - | - |
| 1777775453 | 3.89° C | 63% | 985.5 hPa | 0 mm | - | - | - |
* Rain latest hour (hover to see other rain measurements)
** Current wind speed in m/s (hover to see current wind gust speed)